sensor_id;sensor_type;location;lat;lon;timestamp;pressure;altitude;pressure_sealevel;temperature;humidity
64211;BME280;50528;48.514;14.394;2023-06-10T00:00:06;93573.70;;;14.45;77.49
64211;BME280;50528;48.514;14.394;2023-06-10T00:01:07;93574.92;;;14.41;77.56
64211;BME280;50528;48.514;14.394;2023-06-10T00:02:00;93573.83;;;14.37;77.48
64211;BME280;50528;48.514;14.394;2023-06-10T00:02:33;93571.55;;;14.34;77.61
64211;BME280;50528;48.514;14.394;2023-06-10T00:03:07;93575.09;;;14.35;77.62
64211;BME280;50528;48.514;14.394;2023-06-10T00:03:41;93575.67;;;14.36;77.78
64211;BME280;50528;48.514;14.394;2023-06-10T00:04:16;93573.45;;;14.36;77.78
64211;BME280;50528;48.514;14.394;2023-06-10T00:04:50;93576.73;;;14.35;77.78
64211;BME280;50528;48.514;14.394;2023-06-10T00:05:24;93575.27;;;14.33;77.90
64211;BME280;50528;48.514;14.394;2023-06-10T00:05:57;93578.73;;;14.34;77.97
64211;BME280;50528;48.514;14.394;2023-06-10T00:06:30;93577.48;;;14.35;77.97
64211;BME280;50528;48.514;14.394;2023-06-10T00:07:11;93580.85;;;14.35;77.93
64211;BME280;50528;48.514;14.394;2023-06-10T00:07:45;93581.06;;;14.35;78.12
64211;BME280;50528;48.514;14.394;2023-06-10T00:08:19;93577.84;;;14.36;78.05
64211;BME280;50528;48.514;14.394;2023-06-10T00:08:52;93578.52;;;14.36;78.17
64211;BME280;50528;48.514;14.394;2023-06-10T00:09:26;93582.35;;;14.36;78.20
64211;BME280;50528;48.514;14.394;2023-06-10T00:10:02;93581.48;;;14.36;78.22
64211;BME280;50528;48.514;14.394;2023-06-10T00:10:38;93584.24;;;14.38;78.25
64211;BME280;50528;48.514;14.394;2023-06-10T00:11:15;93585.71;;;14.37;78.35
64211;BME280;50528;48.514;14.394;2023-06-10T00:11:52;93583.61;;;14.37;78.44
64211;BME280;50528;48.514;14.394;2023-06-10T00:12:28;93585.07;;;14.39;78.64
64211;BME280;50528;48.514;14.394;2023-06-10T00:13:05;93584.96;;;14.40;78.70
64211;BME280;50528;48.514;14.394;2023-06-10T00:13:41;93585.23;;;14.40;79.08
64211;BME280;50528;48.514;14.394;2023-06-10T00:14:15;93585.60;;;14.41;79.51
64211;BME280;50528;48.514;14.394;2023-06-10T00:14:49;93588.98;;;14.43;79.55
64211;BME280;50528;48.514;14.394;2023-06-10T00:15:26;93588.20;;;14.45;79.65
64211;BME280;50528;48.514;14.394;2023-06-10T00:15:59;93590.52;;;14.47;79.86
64211;BME280;50528;48.514;14.394;2023-06-10T00:16:33;93587.79;;;14.47;79.93
64211;BME280;50528;48.514;14.394;2023-06-10T00:17:07;93589.04;;;14.48;80.09
64211;BME280;50528;48.514;14.394;2023-06-10T00:17:43;93588.05;;;14.50;80.19
64211;BME280;50528;48.514;14.394;2023-06-10T00:18:17;93590.02;;;14.51;80.35
64211;BME280;50528;48.514;14.394;2023-06-10T00:18:50;93592.91;;;14.53;80.35
64211;BME280;50528;48.514;14.394;2023-06-10T00:19:27;93592.70;;;14.54;80.40
64211;BME280;50528;48.514;14.394;2023-06-10T00:20:03;93594.52;;;14.56;80.51
64211;BME280;50528;48.514;14.394;2023-06-10T00:20:42;93595.04;;;14.57;80.55
64211;BME280;50528;48.514;14.394;2023-06-10T00:21:15;93594.88;;;14.58;80.66
64211;BME280;50528;48.514;14.394;2023-06-10T00:21:49;93598.52;;;14.60;80.83
64211;BME280;50528;48.514;14.394;2023-06-10T00:22:25;93596.91;;;14.61;80.74
64211;BME280;50528;48.514;14.394;2023-06-10T00:23:02;93598.22;;;14.62;80.75
64211;BME280;50528;48.514;14.394;2023-06-10T00:23:35;93597.58;;;14.64;80.80
64211;BME280;50528;48.514;14.394;2023-06-10T00:24:11;93599.90;;;14.66;80.91
64211;BME280;50528;48.514;14.394;2023-06-10T00:24:45;93600.25;;;14.67;80.98
64211;BME280;50528;48.514;14.394;2023-06-10T00:25:18;93597.54;;;14.68;81.22
64211;BME280;50528;48.514;14.394;2023-06-10T00:25:52;93596.79;;;14.70;81.26
64211;BME280;50528;48.514;14.394;2023-06-10T00:26:25;93600.82;;;14.73;81.45
64211;BME280;50528;48.514;14.394;2023-06-10T00:26:59;93597.95;;;14.74;81.41
64211;BME280;50528;48.514;14.394;2023-06-10T00:27:33;93594.91;;;14.74;81.59
64211;BME280;50528;48.514;14.394;2023-06-10T00:28:08;93596.36;;;14.77;81.49
64211;BME280;50528;48.514;14.394;2023-06-10T00:28:41;93595.04;;;14.77;81.44
64211;BME280;50528;48.514;14.394;2023-06-10T00:29:15;93594.12;;;14.78;81.49
64211;BME280;50528;48.514;14.394;2023-06-10T00:29:48;93594.47;;;14.79;81.45
64211;BME280;50528;48.514;14.394;2023-06-10T00:30:22;93599.02;;;14.80;81.50
64211;BME280;50528;48.514;14.394;2023-06-10T00:30:55;93600.88;;;14.82;81.42
64211;BME280;50528;48.514;14.394;2023-06-10T00:31:30;93599.27;;;14.82;81.53
64211;BME280;50528;48.514;14.394;2023-06-10T00:32:04;93598.69;;;14.83;81.53
64211;BME280;50528;48.514;14.394;2023-06-10T00:32:39;93601.55;;;14.84;81.50
64211;BME280;50528;48.514;14.394;2023-06-10T00:33:12;93599.52;;;14.84;81.51
64211;BME280;50528;48.514;14.394;2023-06-10T00:33:45;93598.77;;;14.85;81.33
64211;BME280;50528;48.514;14.394;2023-06-10T00:34:19;93600.47;;;14.85;81.40
64211;BME280;50528;48.514;14.394;2023-06-10T00:34:52;93602.25;;;14.86;81.22
64211;BME280;50528;48.514;14.394;2023-06-10T00:35:25;93603.46;;;14.86;81.34
64211;BME280;50528;48.514;14.394;2023-06-10T00:35:59;93600.30;;;14.86;81.21
64211;BME280;50528;48.514;14.394;2023-06-10T00:36:33;93599.92;;;14.86;81.06
64211;BME280;50528;48.514;14.394;2023-06-10T00:37:08;93601.24;;;14.87;81.20
64211;BME280;50528;48.514;14.394;2023-06-10T00:37:42;93599.92;;;14.87;81.14
64211;BME280;50528;48.514;14.394;2023-06-10T00:38:15;93600.14;;;14.87;81.16
64211;BME280;50528;48.514;14.394;2023-06-10T00:38:48;93603.30;;;14.88;81.23
64211;BME280;50528;48.514;14.394;2023-06-10T00:39:22;93601.71;;;14.89;81.29
64211;BME280;50528;48.514;14.394;2023-06-10T00:39:55;93601.28;;;14.89;81.27
64211;BME280;50528;48.514;14.394;2023-06-10T00:40:28;93601.48;;;14.90;81.33
64211;BME280;50528;48.514;14.394;2023-06-10T00:41:03;93601.59;;;14.90;81.34
64211;BME280;50528;48.514;14.394;2023-06-10T00:41:37;93600.40;;;14.91;81.32
64211;BME280;50528;48.514;14.394;2023-06-10T00:42:10;93603.27;;;14.93;81.22
64211;BME280;50528;48.514;14.394;2023-06-10T00:42:43;93604.30;;;14.94;81.29
64211;BME280;50528;48.514;14.394;2023-06-10T00:43:17;93600.34;;;14.94;81.20
64211;BME280;50528;48.514;14.394;2023-06-10T00:43:54;93601.39;;;14.94;81.15
64211;BME280;50528;48.514;14.394;2023-06-10T00:44:27;93600.01;;;14.95;81.09
64211;BME280;50528;48.514;14.394;2023-06-10T00:45:01;93600.89;;;14.96;81.03
64211;BME280;50528;48.514;14.394;2023-06-10T00:45:34;93599.34;;;14.97;81.05
64211;BME280;50528;48.514;14.394;2023-06-10T00:46:09;93600.34;;;14.97;80.91
64211;BME280;50528;48.514;14.394;2023-06-10T00:46:43;93599.81;;;14.97;80.98
64211;BME280;50528;48.514;14.394;2023-06-10T00:47:17;93602.31;;;14.97;80.98
64211;BME280;50528;48.514;14.394;2023-06-10T00:47:51;93598.28;;;14.97;80.85
64211;BME280;50528;48.514;14.394;2023-06-10T00:48:24;93598.77;;;14.97;80.84
64211;BME280;50528;48.514;14.394;2023-06-10T00:48:58;93599.66;;;14.97;80.74
64211;BME280;50528;48.514;14.394;2023-06-10T00:49:32;93599.80;;;14.97;80.79
64211;BME280;50528;48.514;14.394;2023-06-10T00:50:06;93598.60;;;14.97;80.84
64211;BME280;50528;48.514;14.394;2023-06-10T00:50:40;93599.71;;;14.97;80.78
64211;BME280;50528;48.514;14.394;2023-06-10T00:51:15;93595.53;;;14.93;80.73
64211;BME280;50528;48.514;14.394;2023-06-10T00:51:49;93598.68;;;14.96;80.69
64211;BME280;50528;48.514;14.394;2023-06-10T00:52:26;93599.01;;;14.95;80.66
64211;BME280;50528;48.514;14.394;2023-06-10T00:53:00;93598.58;;;14.95;80.88
64211;BME280;50528;48.514;14.394;2023-06-10T00:53:40;93599.01;;;14.95;80.82
64211;BME280;50528;48.514;14.394;2023-06-10T00:54:14;93601.23;;;14.94;80.67
64211;BME280;50528;48.514;14.394;2023-06-10T00:54:48;93595.10;;;14.94;80.66
64211;BME280;50528;48.514;14.394;2023-06-10T00:55:21;93596.48;;;14.94;80.60
64211;BME280;50528;48.514;14.394;2023-06-10T00:55:56;93592.98;;;14.95;80.62
64211;BME280;50528;48.514;14.394;2023-06-10T00:56:30;93593.71;;;14.95;80.48
64211;BME280;50528;48.514;14.394;2023-06-10T00:57:05;93596.84;;;14.94;80.39
64211;BME280;50528;48.514;14.394;2023-06-10T00:57:40;93596.95;;;14.93;80.29
64211;BME280;50528;48.514;14.394;2023-06-10T00:58:17;93595.37;;;14.92;80.20
64211;BME280;50528;48.514;14.394;2023-06-10T00:58:51;93595.39;;;14.91;80.06
64211;BME280;50528;48.514;14.394;2023-06-10T00:59:25;93601.34;;;14.89;79.87
64211;BME280;50528;48.514;14.394;2023-06-10T00:59:58;93599.17;;;14.89;79.76
64211;BME280;50528;48.514;14.394;2023-06-10T01:00:35;93599.81;;;14.87;79.50
64211;BME280;50528;48.514;14.394;2023-06-10T01:01:08;93601.92;;;14.87;79.41
64211;BME280;50528;48.514;14.394;2023-06-10T01:01:45;93599.61;;;14.87;79.14
64211;BME280;50528;48.514;14.394;2023-06-10T01:02:20;93598.73;;;14.83;79.14
64211;BME280;50528;48.514;14.394;2023-06-10T01:02:54;93599.70;;;14.81;79.13
64211;BME280;50528;48.514;14.394;2023-06-10T01:03:28;93599.73;;;14.79;79.19
64211;BME280;50528;48.514;14.394;2023-06-10T01:04:02;93601.45;;;14.77;79.04
64211;BME280;50528;48.514;14.394;2023-06-10T01:04:36;93597.90;;;14.75;79.10
64211;BME280;50528;48.514;14.394;2023-06-10T01:05:10;93597.80;;;14.73;78.94
64211;BME280;50528;48.514;14.394;2023-06-10T01:05:52;93597.17;;;14.73;78.95
64211;BME280;50528;48.514;14.394;2023-06-10T01:07:33;93597.70;;;14.67;79.24
64211;BME280;50528;48.514;14.394;2023-06-10T01:09:28;93595.30;;;14.63;79.55
64211;BME280;50528;48.514;14.394;2023-06-10T01:10:11;93597.59;;;14.61;79.75
64211;BME280;50528;48.514;14.394;2023-06-10T01:10:55;93595.86;;;14.60;79.85
64211;BME280;50528;48.514;14.394;2023-06-10T01:11:44;93596.98;;;14.60;80.04
64211;BME280;50528;48.514;14.394;2023-06-10T01:12:31;93596.36;;;14.59;80.20
64211;BME280;50528;48.514;14.394;2023-06-10T01:13:12;93593.77;;;14.58;80.32
64211;BME280;50528;48.514;14.394;2023-06-10T01:13:50;93595.40;;;14.60;80.56
64211;BME280;50528;48.514;14.394;2023-06-10T01:14:24;93594.83;;;14.62;80.52
64211;BME280;50528;48.514;14.394;2023-06-10T01:14:59;93593.03;;;14.63;80.67
64211;BME280;50528;48.514;14.394;2023-06-10T01:15:34;93597.00;;;14.64;80.78
64211;BME280;50528;48.514;14.394;2023-06-10T01:16:09;93593.39;;;14.65;80.86
64211;BME280;50528;48.514;14.394;2023-06-10T01:16:44;93594.23;;;14.66;80.82
64211;BME280;50528;48.514;14.394;2023-06-10T01:17:18;93596.95;;;14.67;80.95
64211;BME280;50528;48.514;14.394;2023-06-10T01:17:54;93596.05;;;14.67;80.87
64211;BME280;50528;48.514;14.394;2023-06-10T01:18:31;93600.29;;;14.67;80.83
64211;BME280;50528;48.514;14.394;2023-06-10T01:19:04;93594.21;;;14.67;80.90
64211;BME280;50528;48.514;14.394;2023-06-10T01:19:38;93594.79;;;14.68;80.94
64211;BME280;50528;48.514;14.394;2023-06-10T01:20:11;93594.94;;;14.68;80.88
64211;BME280;50528;48.514;14.394;2023-06-10T01:20:46;93593.70;;;14.66;80.80
64211;BME280;50528;48.514;14.394;2023-06-10T01:21:23;93591.65;;;14.65;80.91
64211;BME280;50528;48.514;14.394;2023-06-10T01:21:57;93593.18;;;14.65;81.00
64211;BME280;50528;48.514;14.394;2023-06-10T01:22:33;93591.70;;;14.65;81.10
64211;BME280;50528;48.514;14.394;2023-06-10T01:23:10;93595.83;;;14.65;80.94
64211;BME280;50528;48.514;14.394;2023-06-10T01:23:44;93589.43;;;14.63;81.11
64211;BME280;50528;48.514;14.394;2023-06-10T01:24:18;93595.41;;;14.63;81.16
64211;BME280;50528;48.514;14.394;2023-06-10T01:24:52;93596.30;;;14.64;81.20
64211;BME280;50528;48.514;14.394;2023-06-10T01:25:27;93592.45;;;14.63;81.27
64211;BME280;50528;48.514;14.394;2023-06-10T01:26:06;93596.55;;;14.60;81.14
64211;BME280;50528;48.514;14.394;2023-06-10T01:26:42;93594.23;;;14.60;81.28
64211;BME280;50528;48.514;14.394;2023-06-10T01:27:18;93595.40;;;14.60;81.22
64211;BME280;50528;48.514;14.394;2023-06-10T01:28:04;93595.71;;;14.59;81.38
64211;BME280;50528;48.514;14.394;2023-06-10T01:28:45;93596.89;;;14.57;81.17
64211;BME280;50528;48.514;14.394;2023-06-10T01:29:32;93595.60;;;14.55;81.25
64211;BME280;50528;48.514;14.394;2023-06-10T01:30:14;93597.23;;;14.53;81.34
64211;BME280;50528;48.514;14.394;2023-06-10T01:30:56;93596.20;;;14.52;81.32
64211;BME280;50528;48.514;14.394;2023-06-10T01:31:49;93597.52;;;14.50;81.22
64211;BME280;50528;48.514;14.394;2023-06-10T01:32:37;93595.55;;;14.47;81.28
64211;BME280;50528;48.514;14.394;2023-06-10T01:33:16;93596.56;;;14.43;81.29
64211;BME280;50528;48.514;14.394;2023-06-10T01:33:52;93592.84;;;14.42;81.42
64211;BME280;50528;48.514;14.394;2023-06-10T01:34:26;93596.27;;;14.40;81.28
64211;BME280;50528;48.514;14.394;2023-06-10T01:35:01;93592.27;;;14.39;81.36
64211;BME280;50528;48.514;14.394;2023-06-10T01:35:37;93594.23;;;14.39;81.49
64211;BME280;50528;48.514;14.394;2023-06-10T01:36:12;93590.27;;;14.38;81.86
64211;BME280;50528;48.514;14.394;2023-06-10T01:36:48;93593.23;;;14.35;81.78
64211;BME280;50528;48.514;14.394;2023-06-10T01:37:24;93588.70;;;14.32;81.88
64211;BME280;50528;48.514;14.394;2023-06-10T01:37:58;93593.30;;;14.31;81.91
64211;BME280;50528;48.514;14.394;2023-06-10T01:38:40;93591.52;;;14.30;82.02
64211;BME280;50528;48.514;14.394;2023-06-10T01:39:16;93589.67;;;14.29;82.22
64211;BME280;50528;48.514;14.394;2023-06-10T01:39:51;93591.36;;;14.29;82.26
64211;BME280;50528;48.514;14.394;2023-06-10T01:40:25;93591.48;;;14.29;82.42
64211;BME280;50528;48.514;14.394;2023-06-10T01:40:59;93590.58;;;14.29;82.34
64211;BME280;50528;48.514;14.394;2023-06-10T01:41:34;93588.92;;;14.29;82.37
64211;BME280;50528;48.514;14.394;2023-06-10T01:42:10;93591.79;;;14.30;82.42
64211;BME280;50528;48.514;14.394;2023-06-10T01:42:44;93579.02;;;14.24;82.58
64211;BME280;50528;48.514;14.394;2023-06-10T01:43:19;93588.44;;;14.30;82.38
64211;BME280;50528;48.514;14.394;2023-06-10T01:43:54;93587.48;;;14.31;82.50
64211;BME280;50528;48.514;14.394;2023-06-10T01:44:27;93586.02;;;14.30;82.45
64211;BME280;50528;48.514;14.394;2023-06-10T01:45:01;93585.95;;;14.31;82.34
64211;BME280;50528;48.514;14.394;2023-06-10T01:45:34;93589.48;;;14.31;82.26
64211;BME280;50528;48.514;14.394;2023-06-10T01:46:08;93589.05;;;14.32;82.20
64211;BME280;50528;48.514;14.394;2023-06-10T01:46:41;93587.26;;;14.32;82.31
64211;BME280;50528;48.514;14.394;2023-06-10T01:47:16;93589.64;;;14.32;82.27
64211;BME280;50528;48.514;14.394;2023-06-10T01:47:50;93587.11;;;14.31;82.25
64211;BME280;50528;48.514;14.394;2023-06-10T01:48:24;93588.44;;;14.31;82.25
64211;BME280;50528;48.514;14.394;2023-06-10T01:48:58;93588.70;;;14.31;82.26
64211;BME280;50528;48.514;14.394;2023-06-10T01:50:43;93589.42;;;14.26;82.11
64211;BME280;50528;48.514;14.394;2023-06-10T01:51:17;93591.67;;;14.22;82.06
64211;BME280;50528;48.514;14.394;2023-06-10T01:51:50;93589.50;;;14.21;82.14
64211;BME280;50528;48.514;14.394;2023-06-10T01:52:25;93590.93;;;14.22;82.04
64211;BME280;50528;48.514;14.394;2023-06-10T01:53:00;93586.27;;;14.22;81.90
64211;BME280;50528;48.514;14.394;2023-06-10T01:53:33;93586.07;;;14.22;81.94
64211;BME280;50528;48.514;14.394;2023-06-10T01:54:07;93587.02;;;14.22;81.85
64211;BME280;50528;48.514;14.394;2023-06-10T01:54:40;93586.44;;;14.22;81.80
64211;BME280;50528;48.514;14.394;2023-06-10T01:55:13;93583.05;;;14.22;81.84
64211;BME280;50528;48.514;14.394;2023-06-10T01:55:46;93586.38;;;14.22;81.82
64211;BME280;50528;48.514;14.394;2023-06-10T01:56:20;93584.53;;;14.22;81.75
64211;BME280;50528;48.514;14.394;2023-06-10T01:56:54;93584.80;;;14.23;81.75
64211;BME280;50528;48.514;14.394;2023-06-10T01:57:28;93583.80;;;14.22;81.69
64211;BME280;50528;48.514;14.394;2023-06-10T01:58:01;93586.02;;;14.21;81.60
64211;BME280;50528;48.514;14.394;2023-06-10T01:58:34;93587.70;;;14.21;81.45
64211;BME280;50528;48.514;14.394;2023-06-10T01:59:07;93586.77;;;14.20;81.41
64211;BME280;50528;48.514;14.394;2023-06-10T01:59:41;93584.38;;;14.21;81.41
64211;BME280;50528;48.514;14.394;2023-06-10T02:00:17;93588.24;;;14.20;81.40
64211;BME280;50528;48.514;14.394;2023-06-10T02:00:50;93587.05;;;14.19;81.33
64211;BME280;50528;48.514;14.394;2023-06-10T02:01:25;93592.92;;;14.18;81.35
64211;BME280;50528;48.514;14.394;2023-06-10T02:01:59;93589.96;;;14.18;81.27
64211;BME280;50528;48.514;14.394;2023-06-10T02:02:32;93588.02;;;14.17;81.27
64211;BME280;50528;48.514;14.394;2023-06-10T02:03:06;93587.22;;;14.17;81.27
64211;BME280;50528;48.514;14.394;2023-06-10T02:03:41;93583.94;;;14.16;81.34
64211;BME280;50528;48.514;14.394;2023-06-10T02:04:14;93586.37;;;14.16;81.27
64211;BME280;50528;48.514;14.394;2023-06-10T02:04:48;93584.48;;;14.16;81.40
64211;BME280;50528;48.514;14.394;2023-06-10T02:05:21;93583.63;;;14.15;81.43
64211;BME280;50528;48.514;14.394;2023-06-10T02:05:55;93586.96;;;14.14;81.48
64211;BME280;50528;48.514;14.394;2023-06-10T02:06:28;93586.98;;;14.12;81.42
64211;BME280;50528;48.514;14.394;2023-06-10T02:07:02;93584.77;;;14.12;81.42
64211;BME280;50528;48.514;14.394;2023-06-10T02:07:37;93582.98;;;14.11;81.59
64211;BME280;50528;48.514;14.394;2023-06-10T02:08:11;93585.35;;;14.11;81.57
64211;BME280;50528;48.514;14.394;2023-06-10T02:08:44;93582.44;;;14.10;81.72
64211;BME280;50528;48.514;14.394;2023-06-10T02:09:17;93584.66;;;14.11;81.69
64211;BME280;50528;48.514;14.394;2023-06-10T02:09:51;93580.97;;;14.09;81.74
64211;BME280;50528;48.514;14.394;2023-06-10T02:10:25;93585.14;;;14.10;81.86
64211;BME280;50528;48.514;14.394;2023-06-10T02:10:59;93587.73;;;14.10;81.76
64211;BME280;50528;48.514;14.394;2023-06-10T02:11:35;93585.77;;;14.10;81.86
64211;BME280;50528;48.514;14.394;2023-06-10T02:12:08;93586.14;;;14.10;81.90
64211;BME280;50528;48.514;14.394;2023-06-10T02:12:43;93581.92;;;14.09;82.00
64211;BME280;50528;48.514;14.394;2023-06-10T02:13:16;93582.81;;;14.09;82.07
64211;BME280;50528;48.514;14.394;2023-06-10T02:13:50;93583.50;;;14.09;82.09
64211;BME280;50528;48.514;14.394;2023-06-10T02:14:24;93583.61;;;14.10;82.13
64211;BME280;50528;48.514;14.394;2023-06-10T02:14:57;93586.04;;;14.11;82.10
64211;BME280;50528;48.514;14.394;2023-06-10T02:15:30;93582.23;;;14.11;82.18
64211;BME280;50528;48.514;14.394;2023-06-10T02:16:04;93583.08;;;14.11;82.24
64211;BME280;50528;48.514;14.394;2023-06-10T02:16:39;93582.51;;;14.10;82.27
64211;BME280;50528;48.514;14.394;2023-06-10T02:17:12;93583.61;;;14.11;82.48
64211;BME280;50528;48.514;14.394;2023-06-10T02:17:47;93584.81;;;14.12;82.42
64211;BME280;50528;48.514;14.394;2023-06-10T02:18:23;93584.91;;;14.12;82.43
64211;BME280;50528;48.514;14.394;2023-06-10T02:18:57;93584.98;;;14.12;82.34
64211;BME280;50528;48.514;14.394;2023-06-10T02:19:33;93583.29;;;14.10;82.42
64211;BME280;50528;48.514;14.394;2023-06-10T02:20:10;93582.92;;;14.12;82.34
64211;BME280;50528;48.514;14.394;2023-06-10T02:20:43;93586.35;;;14.12;82.46
64211;BME280;50528;48.514;14.394;2023-06-10T02:21:17;93583.66;;;14.11;82.53
64211;BME280;50528;48.514;14.394;2023-06-10T02:21:50;93585.55;;;14.13;82.43
64211;BME280;50528;48.514;14.394;2023-06-10T02:22:24;93583.65;;;14.13;82.53
64211;BME280;50528;48.514;14.394;2023-06-10T02:22:58;93588.87;;;14.14;82.40
64211;BME280;50528;48.514;14.394;2023-06-10T02:23:34;93587.16;;;14.14;82.43
64211;BME280;50528;48.514;14.394;2023-06-10T02:24:09;93588.54;;;14.15;82.47
64211;BME280;50528;48.514;14.394;2023-06-10T02:24:43;93590.77;;;14.15;82.45
64211;BME280;50528;48.514;14.394;2023-06-10T02:25:16;93590.92;;;14.15;82.52
64211;BME280;50528;48.514;14.394;2023-06-10T02:25:49;93590.02;;;14.15;82.53
64211;BME280;50528;48.514;14.394;2023-06-10T02:26:23;93592.23;;;14.16;82.54
64211;BME280;50528;48.514;14.394;2023-06-10T02:26:59;93589.80;;;14.16;82.58
64211;BME280;50528;48.514;14.394;2023-06-10T02:27:33;93591.23;;;14.17;82.67
64211;BME280;50528;48.514;14.394;2023-06-10T02:28:07;93592.60;;;14.17;82.77
64211;BME280;50528;48.514;14.394;2023-06-10T02:28:43;93590.39;;;14.18;82.74
64211;BME280;50528;48.514;14.394;2023-06-10T02:29:18;93588.27;;;14.19;82.67
64211;BME280;50528;48.514;14.394;2023-06-10T02:29:51;93588.93;;;14.20;82.80
64211;BME280;50528;48.514;14.394;2023-06-10T02:30:25;93590.48;;;14.19;82.96
64211;BME280;50528;48.514;14.394;2023-06-10T02:30:58;93588.23;;;14.18;82.97
64211;BME280;50528;48.514;14.394;2023-06-10T02:31:32;93589.44;;;14.17;83.03
64211;BME280;50528;48.514;14.394;2023-06-10T02:32:09;93589.13;;;14.16;83.28
64211;BME280;50528;48.514;14.394;2023-06-10T02:32:46;93594.89;;;14.17;83.28
64211;BME280;50528;48.514;14.394;2023-06-10T02:33:22;93592.77;;;14.18;83.44
64211;BME280;50528;48.514;14.394;2023-06-10T02:33:57;93589.92;;;14.22;84.07
64211;BME280;50528;48.514;14.394;2023-06-10T02:34:31;93589.60;;;14.23;84.41
64211;BME280;50528;48.514;14.394;2023-06-10T02:35:04;93590.77;;;14.23;84.14
64211;BME280;50528;48.514;14.394;2023-06-10T02:35:39;93587.17;;;14.22;84.26
64211;BME280;50528;48.514;14.394;2023-06-10T02:36:12;93589.39;;;14.22;84.44
64211;BME280;50528;48.514;14.394;2023-06-10T02:36:46;93591.77;;;14.24;84.62
64211;BME280;50528;48.514;14.394;2023-06-10T02:37:22;93589.85;;;14.26;84.81
64211;BME280;50528;48.514;14.394;2023-06-10T02:37:55;93591.73;;;14.27;85.00
64211;BME280;50528;48.514;14.394;2023-06-10T02:38:28;93589.36;;;14.27;85.09
64211;BME280;50528;48.514;14.394;2023-06-10T02:39:03;93592.58;;;14.30;85.04
64211;BME280;50528;48.514;14.394;2023-06-10T02:39:37;93594.50;;;14.32;85.36
64211;BME280;50528;48.514;14.394;2023-06-10T02:40:13;93595.13;;;14.34;85.35
64211;BME280;50528;48.514;14.394;2023-06-10T02:40:46;93593.45;;;14.36;85.39
64211;BME280;50528;48.514;14.394;2023-06-10T02:41:22;93596.91;;;14.39;85.51
64211;BME280;50528;48.514;14.394;2023-06-10T02:41:57;93592.67;;;14.40;85.50
64211;BME280;50528;48.514;14.394;2023-06-10T02:42:30;93591.57;;;14.42;85.43
64211;BME280;50528;48.514;14.394;2023-06-10T02:43:04;93592.18;;;14.43;85.55
64211;BME280;50528;48.514;14.394;2023-06-10T02:43:40;93590.02;;;14.45;85.47
64211;BME280;50528;48.514;14.394;2023-06-10T02:44:14;93589.90;;;14.45;85.38
64211;BME280;50528;48.514;14.394;2023-06-10T02:44:47;93589.94;;;14.48;85.50
64211;BME280;50528;48.514;14.394;2023-06-10T02:45:26;93590.38;;;14.49;85.42
64211;BME280;50528;48.514;14.394;2023-06-10T02:45:59;93589.85;;;14.52;85.30
64211;BME280;50528;48.514;14.394;2023-06-10T02:46:33;93595.23;;;14.53;85.24
64211;BME280;50528;48.514;14.394;2023-06-10T02:47:07;93593.75;;;14.54;85.20
64211;BME280;50528;48.514;14.394;2023-06-10T02:47:42;93591.98;;;14.55;85.23
64211;BME280;50528;48.514;14.394;2023-06-10T02:48:15;93594.45;;;14.56;85.20
64211;BME280;50528;48.514;14.394;2023-06-10T02:48:49;93597.15;;;14.58;85.17
64211;BME280;50528;48.514;14.394;2023-06-10T02:49:27;93600.32;;;14.59;85.17
64211;BME280;50528;48.514;14.394;2023-06-10T02:50:04;93599.27;;;14.60;85.05
64211;BME280;50528;48.514;14.394;2023-06-10T02:50:40;93599.77;;;14.61;85.20
64211;BME280;50528;48.514;14.394;2023-06-10T02:51:30;93599.30;;;14.59;85.24
64211;BME280;50528;48.514;14.394;2023-06-10T02:52:05;93600.18;;;14.61;85.33
64211;BME280;50528;48.514;14.394;2023-06-10T02:52:40;93601.55;;;14.63;85.27
64211;BME280;50528;48.514;14.394;2023-06-10T02:53:14;93602.87;;;14.63;85.25
64211;BME280;50528;48.514;14.394;2023-06-10T02:53:50;93600.33;;;14.65;85.51
64211;BME280;50528;48.514;14.394;2023-06-10T02:54:24;93595.98;;;14.64;85.48
64211;BME280;50528;48.514;14.394;2023-06-10T02:54:57;93604.10;;;14.67;85.47
64211;BME280;50528;48.514;14.394;2023-06-10T02:55:31;93600.14;;;14.66;85.56
64211;BME280;50528;48.514;14.394;2023-06-10T02:56:07;93597.05;;;14.71;85.82
64211;BME280;50528;48.514;14.394;2023-06-10T02:56:40;93601.14;;;14.68;85.70
64211;BME280;50528;48.514;14.394;2023-06-10T02:57:19;93604.26;;;14.68;85.67
64211;BME280;50528;48.514;14.394;2023-06-10T02:57:52;93603.09;;;14.69;85.87
64211;BME280;50528;48.514;14.394;2023-06-10T02:58:27;93604.30;;;14.70;85.93
64211;BME280;50528;48.514;14.394;2023-06-10T02:59:01;93605.04;;;14.70;85.87
64211;BME280;50528;48.514;14.394;2023-06-10T02:59:35;93603.55;;;14.72;85.99
64211;BME280;50528;48.514;14.394;2023-06-10T03:00:09;93601.41;;;14.73;86.06
64211;BME280;50528;48.514;14.394;2023-06-10T03:00:44;93605.90;;;14.74;86.09
64211;BME280;50528;48.514;14.394;2023-06-10T03:01:18;93603.73;;;14.76;86.14
64211;BME280;50528;48.514;14.394;2023-06-10T03:02:05;93607.05;;;14.77;86.05
64211;BME280;50528;48.514;14.394;2023-06-10T03:02:43;93604.52;;;14.77;86.23
64211;BME280;50528;48.514;14.394;2023-06-10T03:03:19;93605.33;;;14.79;86.19
64211;BME280;50528;48.514;14.394;2023-06-10T03:04:00;93602.72;;;14.82;86.54
64211;BME280;50528;48.514;14.394;2023-06-10T03:04:34;93601.70;;;14.83;86.70
64211;BME280;50528;48.514;14.394;2023-06-10T03:05:10;93605.09;;;14.83;86.56
64211;BME280;50528;48.514;14.394;2023-06-10T03:05:45;93603.61;;;14.82;86.72
64211;BME280;50528;48.514;14.394;2023-06-10T03:06:22;93605.41;;;14.81;86.67
64211;BME280;50528;48.514;14.394;2023-06-10T03:06:58;93605.09;;;14.81;86.67
64211;BME280;50528;48.514;14.394;2023-06-10T03:07:36;93605.73;;;14.82;86.94